createdAt,value
2018-01-06T00:00:00.286Z,0
2018-01-06T00:00:40.872Z,0
2018-01-06T00:01:21.464Z,0
2018-01-06T00:02:02.062Z,0
2018-01-06T00:02:42.650Z,0
2018-01-06T00:03:23.231Z,0
2018-01-06T00:04:03.822Z,0
2018-01-06T00:04:44.435Z,0
2018-01-06T00:05:25.017Z,0
2018-01-06T00:06:05.608Z,0
2018-01-06T00:06:46.210Z,0
2018-01-06T00:07:26.801Z,0
2018-01-06T00:08:07.372Z,0
2018-01-06T00:08:47.939Z,0
2018-01-06T00:09:28.519Z,0
2018-01-06T00:10:09.082Z,0
2018-01-06T00:10:49.656Z,0
2018-01-06T00:11:30.251Z,0
2018-01-06T00:12:10.818Z,0
2018-01-06T00:12:51.394Z,0
2018-01-06T00:13:31.967Z,0
2018-01-06T00:14:12.549Z,0
2018-01-06T00:14:53.155Z,0
2018-01-06T00:15:33.746Z,0
2018-01-06T00:16:14.327Z,0
2018-01-06T00:16:54.900Z,0
2018-01-06T00:17:35.473Z,0
2018-01-06T00:18:16.060Z,0
2018-01-06T00:18:56.632Z,0
2018-01-06T00:19:37.194Z,0
2018-01-06T00:20:17.845Z,0
2018-01-06T00:20:58.436Z,0
2018-01-06T00:21:38.998Z,0
2018-01-06T00:22:19.576Z,0
2018-01-06T00:23:00.164Z,0
2018-01-06T00:23:40.754Z,0
2018-01-06T00:24:21.377Z,0
2018-01-06T00:25:02.053Z,0
2018-01-06T00:25:42.620Z,0
2018-01-06T00:26:23.195Z,0
2018-01-06T00:27:03.762Z,0
2018-01-06T00:27:44.335Z,0
2018-01-06T00:28:24.907Z,0
2018-01-06T00:29:05.477Z,0
2018-01-06T00:29:46.043Z,0
2018-01-06T00:30:26.603Z,0
2018-01-06T00:31:07.183Z,0
2018-01-06T00:31:47.749Z,0
2018-01-06T00:32:28.320Z,0
2018-01-06T00:33:08.920Z,0
2018-01-06T00:33:49.543Z,0
2018-01-06T00:34:30.104Z,0
2018-01-06T00:35:10.726Z,0
2018-01-06T00:35:51.293Z,0
2018-01-06T00:36:31.862Z,0
2018-01-06T00:37:12.416Z,0
2018-01-06T00:37:53.015Z,0
2018-01-06T00:38:33.571Z,0
2018-01-06T00:39:14.135Z,0
2018-01-06T00:39:54.723Z,0
2018-01-06T00:40:35.276Z,0
2018-01-06T00:41:15.892Z,0
2018-01-06T00:41:56.479Z,0
2018-01-06T00:42:37.042Z,0
2018-01-06T00:43:17.614Z,0
2018-01-06T00:43:58.245Z,0
2018-01-06T00:44:38.787Z,0
2018-01-06T00:45:19.362Z,0
2018-01-06T00:45:59.922Z,0
2018-01-06T00:46:40.496Z,0
2018-01-06T00:47:21.066Z,0
2018-01-06T00:48:01.618Z,0
2018-01-06T00:48:42.194Z,0
2018-01-06T00:49:22.759Z,0
2018-01-06T00:50:03.321Z,0
2018-01-06T00:50:43.905Z,0
2018-01-06T00:51:24.476Z,0
2018-01-06T00:52:05.056Z,0
2018-01-06T00:52:45.606Z,0
2018-01-06T00:53:26.206Z,0
2018-01-06T00:54:06.768Z,0
2018-01-06T00:54:47.360Z,0
2018-01-06T00:55:27.953Z,0
2018-01-06T00:56:08.526Z,0
2018-01-06T00:56:49.104Z,0
2018-01-06T00:57:29.668Z,0
2018-01-06T00:58:10.268Z,0
2018-01-06T00:58:50.851Z,0
2018-01-06T00:59:31.416Z,0
2018-01-06T01:00:11.992Z,0
2018-01-06T01:00:52.593Z,0
2018-01-06T01:01:33.183Z,0
2018-01-06T01:02:13.774Z,0
2018-01-06T01:02:54.379Z,0
2018-01-06T01:03:35.012Z,0
2018-01-06T01:04:15.593Z,0
2018-01-06T01:04:56.168Z,0
2018-01-06T01:05:36.777Z,0
2018-01-06T01:06:17.358Z,0
2018-01-06T01:06:57.930Z,0
2018-01-06T01:07:38.513Z,0
2018-01-06T01:08:19.083Z,0
2018-01-06T01:08:59.659Z,0
2018-01-06T01:09:40.258Z,0
2018-01-06T01:10:20.822Z,0
2018-01-06T01:11:01.384Z,0
2018-01-06T01:11:41.954Z,0
2018-01-06T01:12:22.518Z,0
2018-01-06T01:13:03.095Z,0
2018-01-06T01:13:43.672Z,0
2018-01-06T01:14:24.248Z,0
2018-01-06T01:15:04.832Z,0
2018-01-06T01:15:45.415Z,0
2018-01-06T01:16:25.986Z,0
2018-01-06T01:17:06.572Z,0
2018-01-06T01:17:47.137Z,0
2018-01-06T01:18:27.738Z,0
2018-01-06T01:19:08.331Z,0
2018-01-06T01:19:48.936Z,0
2018-01-06T01:20:29.495Z,0
2018-01-06T01:21:10.063Z,0
2018-01-06T01:21:50.639Z,0
2018-01-06T01:22:31.259Z,0
2018-01-06T01:23:11.815Z,0
2018-01-06T01:23:52.392Z,0
2018-01-06T01:24:32.983Z,0
2018-01-06T01:25:13.536Z,0
2018-01-06T01:25:54.147Z,0
2018-01-06T01:26:34.711Z,0
2018-01-06T01:27:15.314Z,0
2018-01-06T01:27:55.876Z,0
2018-01-06T01:28:36.457Z,0
2018-01-06T01:29:17.027Z,0
2018-01-06T01:29:57.581Z,0
2018-01-06T01:30:38.133Z,0
2018-01-06T01:31:18.707Z,0
2018-01-06T01:31:59.277Z,0
2018-01-06T01:32:39.842Z,0
2018-01-06T01:33:20.425Z,0
2018-01-06T01:34:00.984Z,0
2018-01-06T01:34:41.575Z,0
2018-01-06T01:35:22.167Z,0
2018-01-06T01:36:02.722Z,0
2018-01-06T01:36:43.292Z,0
2018-01-06T01:37:23.887Z,0
2018-01-06T01:38:04.458Z,0
2018-01-06T01:38:45.043Z,0
2018-01-06T01:39:25.669Z,0
2018-01-06T01:40:06.259Z,0
2018-01-06T01:40:46.865Z,0
2018-01-06T01:41:27.450Z,0
2018-01-06T01:42:08.007Z,0
2018-01-06T01:42:48.566Z,0
2018-01-06T01:43:29.138Z,0
2018-01-06T01:44:09.717Z,0
2018-01-06T01:44:50.293Z,0
2018-01-06T01:45:30.856Z,0
2018-01-06T01:46:11.429Z,0
2018-01-06T01:46:51.985Z,0
2018-01-06T01:47:32.577Z,0
2018-01-06T01:48:13.164Z,0
2018-01-06T01:48:53.724Z,0
2018-01-06T01:49:34.310Z,0
2018-01-06T01:50:14.869Z,0
2018-01-06T01:50:55.435Z,0
2018-01-06T01:51:36.002Z,0
2018-01-06T01:52:16.594Z,0
2018-01-06T01:52:57.189Z,0
2018-01-06T01:53:37.752Z,0
2018-01-06T01:54:21.140Z,0
2018-01-06T01:55:01.708Z,0
2018-01-06T01:55:42.285Z,0
2018-01-06T01:56:22.852Z,0
2018-01-06T01:57:03.409Z,0
2018-01-06T01:57:43.971Z,0
2018-01-06T01:58:24.549Z,0
2018-01-06T01:59:05.082Z,0
2018-01-06T01:59:45.649Z,0
2018-01-06T02:00:26.206Z,0
2018-01-06T02:01:06.777Z,0
2018-01-06T02:01:47.336Z,0
2018-01-06T02:02:27.939Z,0
2018-01-06T02:03:08.500Z,0
2018-01-06T02:03:49.068Z,0
2018-01-06T02:04:29.620Z,0
2018-01-06T02:05:10.196Z,0
2018-01-06T02:05:50.756Z,0
2018-01-06T02:06:31.334Z,0
2018-01-06T02:07:11.886Z,0
2018-01-06T02:07:52.467Z,0
2018-01-06T02:08:33.030Z,0
2018-01-06T02:09:13.590Z,0
2018-01-06T02:09:54.184Z,0
2018-01-06T02:10:34.754Z,0
2018-01-06T02:11:15.388Z,0
2018-01-06T02:11:55.945Z,0
2018-01-06T02:12:36.501Z,0
2018-01-06T02:13:17.091Z,0
2018-01-06T02:13:57.700Z,0
2018-01-06T02:14:38.265Z,0
2018-01-06T02:15:18.842Z,0
2018-01-06T02:15:59.429Z,0
2018-01-06T02:16:39.988Z,0
2018-01-06T02:17:20.560Z,0
2018-01-06T02:18:01.150Z,0
2018-01-06T02:18:41.721Z,0
2018-01-06T02:19:22.287Z,0
2018-01-06T02:20:02.868Z,0
2018-01-06T02:20:43.428Z,0
2018-01-06T02:21:24.030Z,0
2018-01-06T02:22:04.620Z,0
2018-01-06T02:22:45.178Z,0
2018-01-06T02:23:25.759Z,0
2018-01-06T02:24:06.312Z,0
2018-01-06T02:24:46.900Z,0
2018-01-06T02:25:27.547Z,0
2018-01-06T02:26:08.120Z,0
2018-01-06T02:26:48.694Z,0
2018-01-06T02:27:29.286Z,0
2018-01-06T02:28:09.857Z,0
2018-01-06T02:28:50.470Z,0
2018-01-06T02:29:31.045Z,0
2018-01-06T02:30:11.653Z,0
2018-01-06T02:30:52.246Z,0
2018-01-06T02:31:32.821Z,0
2018-01-06T02:32:13.427Z,0
2018-01-06T02:32:54.051Z,0
2018-01-06T02:33:34.639Z,0
2018-01-06T02:34:15.221Z,0
2018-01-06T02:34:55.802Z,0
2018-01-06T02:35:36.400Z,0
2018-01-06T02:36:16.976Z,0
2018-01-06T02:36:57.561Z,0
2018-01-06T02:37:38.140Z,0
2018-01-06T02:38:18.713Z,0
2018-01-06T02:38:59.285Z,0
2018-01-06T02:39:39.850Z,0
2018-01-06T02:40:20.402Z,0
2018-01-06T02:41:00.962Z,0
2018-01-06T02:41:41.558Z,0
2018-01-06T02:42:22.132Z,0
2018-01-06T02:43:02.695Z,0
2018-01-06T02:43:43.303Z,0
2018-01-06T02:44:23.827Z,0
2018-01-06T02:45:04.395Z,0
2018-01-06T02:45:44.968Z,0
2018-01-06T02:46:25.554Z,0
2018-01-06T02:47:06.156Z,0
2018-01-06T02:47:46.718Z,0
2018-01-06T02:48:27.285Z,0
2018-01-06T02:49:07.894Z,0
2018-01-06T02:49:48.459Z,0
2018-01-06T02:50:29.026Z,0
2018-01-06T02:51:09.614Z,0
2018-01-06T02:51:50.228Z,0
2018-01-06T02:52:30.821Z,0
2018-01-06T02:53:11.387Z,0
2018-01-06T02:53:51.986Z,0
2018-01-06T02:54:32.547Z,0
2018-01-06T02:55:13.129Z,0
2018-01-06T02:55:53.696Z,0
2018-01-06T02:56:34.254Z,0
2018-01-06T02:57:14.812Z,0
2018-01-06T02:57:55.382Z,0
2018-01-06T02:58:35.950Z,0
2018-01-06T02:59:16.520Z,0
2018-01-06T02:59:57.076Z,0
2018-01-06T03:00:37.659Z,0
2018-01-06T03:01:18.248Z,0
2018-01-06T03:01:58.815Z,0
2018-01-06T03:02:39.391Z,0
2018-01-06T03:03:19.972Z,0
2018-01-06T03:04:00.547Z,0
2018-01-06T03:04:41.155Z,0
2018-01-06T03:05:21.727Z,0
2018-01-06T03:06:02.320Z,0
2018-01-06T03:06:42.895Z,0
2018-01-06T03:07:23.471Z,0
2018-01-06T03:08:04.027Z,0
2018-01-06T03:08:44.603Z,0
2018-01-06T03:09:25.183Z,0
2018-01-06T03:10:05.763Z,0
2018-01-06T03:10:46.325Z,0
2018-01-06T03:11:26.891Z,0
2018-01-06T03:12:07.472Z,0
2018-01-06T03:12:48.044Z,0
2018-01-06T03:13:28.631Z,0
2018-01-06T03:14:09.196Z,0
2018-01-06T03:14:49.796Z,0
2018-01-06T03:15:30.348Z,0
2018-01-06T03:16:10.939Z,0
2018-01-06T03:16:51.542Z,0
2018-01-06T03:17:32.113Z,0
2018-01-06T03:18:12.676Z,0
2018-01-06T03:18:53.248Z,0
2018-01-06T03:19:33.835Z,0
2018-01-06T03:20:14.428Z,0
2018-01-06T03:20:55.005Z,0
2018-01-06T03:21:35.578Z,0
2018-01-06T03:22:16.149Z,0
2018-01-06T03:22:56.725Z,0
2018-01-06T03:23:37.276Z,0
2018-01-06T03:24:17.855Z,0
2018-01-06T03:24:58.428Z,0
2018-01-06T03:25:39.004Z,0
2018-01-06T03:26:19.599Z,0
2018-01-06T03:27:00.180Z,0
2018-01-06T03:27:40.740Z,0
2018-01-06T03:28:21.330Z,0
2018-01-06T03:29:01.927Z,0
2018-01-06T03:29:42.514Z,0
2018-01-06T03:30:23.077Z,0
2018-01-06T03:31:03.706Z,0
2018-01-06T03:31:44.282Z,0
2018-01-06T03:32:24.852Z,0
2018-01-06T03:33:05.446Z,0
2018-01-06T03:33:46.053Z,0
2018-01-06T03:34:26.619Z,0
2018-01-06T03:35:07.204Z,0
2018-01-06T03:35:47.785Z,0
2018-01-06T03:36:28.395Z,0
2018-01-06T03:37:08.977Z,0
2018-01-06T03:37:49.554Z,0
2018-01-06T03:38:30.143Z,0
2018-01-06T03:39:10.721Z,0
2018-01-06T03:39:51.317Z,0
2018-01-06T03:40:31.932Z,0
2018-01-06T03:41:12.525Z,0
2018-01-06T03:41:53.180Z,0
2018-01-06T03:42:33.822Z,0
2018-01-06T03:43:14.420Z,0
2018-01-06T03:43:54.998Z,0
2018-01-06T03:44:35.580Z,0
2018-01-06T03:45:16.140Z,0
2018-01-06T03:45:56.722Z,0
2018-01-06T03:46:37.281Z,0
2018-01-06T03:47:17.857Z,0
2018-01-06T03:47:58.424Z,0
2018-01-06T03:48:39.008Z,0
2018-01-06T03:49:19.606Z,0
2018-01-06T03:50:00.196Z,0
2018-01-06T03:50:40.809Z,0
2018-01-06T03:51:21.391Z,0
2018-01-06T03:52:02.035Z,0
2018-01-06T03:52:42.617Z,0
2018-01-06T03:53:23.188Z,0
2018-01-06T03:54:03.777Z,0
2018-01-06T03:54:44.363Z,0
2018-01-06T03:55:24.934Z,0
2018-01-06T03:56:05.513Z,0
2018-01-06T03:56:46.101Z,0
2018-01-06T03:57:26.674Z,0
2018-01-06T03:58:07.275Z,0
2018-01-06T03:58:47.873Z,0
2018-01-06T03:59:28.460Z,0
2018-01-06T04:00:09.028Z,0
2018-01-06T04:00:49.601Z,0
2018-01-06T04:01:30.213Z,0
2018-01-06T04:02:10.775Z,0
2018-01-06T04:02:51.364Z,0
2018-01-06T04:03:31.955Z,0
2018-01-06T04:04:12.544Z,0
2018-01-06T04:04:53.106Z,0
2018-01-06T04:05:33.714Z,0
2018-01-06T04:06:14.295Z,0
2018-01-06T04:06:54.891Z,0
2018-01-06T04:07:35.501Z,0
2018-01-06T04:08:16.068Z,0
2018-01-06T04:08:56.674Z,0
2018-01-06T04:09:37.253Z,0
2018-01-06T04:10:17.848Z,0
2018-01-06T04:10:58.454Z,0
2018-01-06T04:11:39.018Z,0
2018-01-06T04:12:19.602Z,0
2018-01-06T04:13:00.168Z,0
2018-01-06T04:13:40.756Z,0
2018-01-06T04:14:21.328Z,0
2018-01-06T04:15:01.935Z,0
2018-01-06T04:15:42.523Z,0
2018-01-06T04:16:23.108Z,0
2018-01-06T04:17:03.678Z,0
2018-01-06T04:17:44.258Z,0
2018-01-06T04:18:24.869Z,0
2018-01-06T04:19:05.434Z,0
2018-01-06T04:19:46.031Z,0
2018-01-06T04:20:26.604Z,0
2018-01-06T04:21:07.175Z,0
2018-01-06T04:21:47.725Z,0
2018-01-06T04:22:28.300Z,0
2018-01-06T04:23:08.914Z,0
2018-01-06T04:23:49.519Z,0
2018-01-06T04:24:30.090Z,0
2018-01-06T04:25:10.668Z,0
2018-01-06T04:25:51.282Z,0
2018-01-06T04:26:31.841Z,0
2018-01-06T04:27:12.402Z,0
2018-01-06T04:27:52.981Z,0
2018-01-06T04:28:33.556Z,0
2018-01-06T04:29:14.174Z,0
2018-01-06T04:29:54.774Z,0
2018-01-06T04:30:35.357Z,0
2018-01-06T04:31:15.921Z,0
2018-01-06T04:31:56.484Z,0
2018-01-06T04:32:37.066Z,0
2018-01-06T04:33:17.627Z,0
2018-01-06T04:33:58.233Z,0
2018-01-06T04:34:38.810Z,0
2018-01-06T04:35:19.392Z,0
2018-01-06T04:35:59.994Z,0
2018-01-06T04:36:40.582Z,0
2018-01-06T04:37:21.150Z,0
2018-01-06T04:38:01.744Z,0
2018-01-06T04:38:42.332Z,0
2018-01-06T04:39:22.934Z,0
2018-01-06T04:40:03.501Z,0
2018-01-06T04:40:44.079Z,0
2018-01-06T04:41:24.650Z,0
2018-01-06T04:42:05.211Z,0
2018-01-06T04:42:45.800Z,0
2018-01-06T04:43:26.373Z,0
2018-01-06T04:44:06.966Z,0
2018-01-06T04:44:47.561Z,0
2018-01-06T04:45:28.114Z,0
2018-01-06T04:46:08.682Z,0
2018-01-06T04:46:49.257Z,0
2018-01-06T04:47:29.817Z,0
2018-01-06T04:48:10.456Z,0
2018-01-06T04:48:51.036Z,0
2018-01-06T04:49:31.606Z,0
2018-01-06T04:50:12.198Z,0
2018-01-06T04:50:52.779Z,0
2018-01-06T04:51:33.339Z,0
2018-01-06T04:52:13.921Z,0
2018-01-06T04:52:54.546Z,0
2018-01-06T04:53:35.158Z,0
2018-01-06T04:54:15.758Z,0
2018-01-06T04:54:56.339Z,0
2018-01-06T04:55:36.898Z,0
2018-01-06T04:56:17.456Z,0
2018-01-06T04:56:58.031Z,0
2018-01-06T04:57:38.649Z,0
2018-01-06T04:58:19.210Z,0
2018-01-06T04:58:59.812Z,0
2018-01-06T04:59:40.378Z,0
2018-01-06T05:00:20.942Z,0
2018-01-06T05:01:01.519Z,0
2018-01-06T05:01:42.100Z,0
2018-01-06T05:02:22.695Z,0
2018-01-06T05:03:03.261Z,0
2018-01-06T05:03:43.842Z,0
2018-01-06T05:04:24.406Z,0
2018-01-06T05:05:04.972Z,0
2018-01-06T05:05:45.591Z,0
2018-01-06T05:06:26.191Z,0
2018-01-06T05:07:06.761Z,0
2018-01-06T05:07:47.337Z,0
2018-01-06T05:08:27.985Z,0
2018-01-06T05:09:08.556Z,0
2018-01-06T05:09:49.136Z,0
2018-01-06T05:10:29.713Z,0
2018-01-06T05:11:10.295Z,0
2018-01-06T05:11:50.871Z,0
2018-01-06T05:12:31.501Z,0
2018-01-06T05:13:12.116Z,0
2018-01-06T05:13:52.692Z,0
2018-01-06T05:14:33.265Z,0
2018-01-06T05:15:13.854Z,0
2018-01-06T05:15:54.468Z,0
2018-01-06T05:16:35.056Z,0
2018-01-06T05:17:15.674Z,0
2018-01-06T05:17:56.270Z,0
2018-01-06T05:18:36.863Z,0
2018-01-06T05:19:17.424Z,0
2018-01-06T05:19:57.987Z,0
2018-01-06T05:20:38.593Z,0
2018-01-06T05:21:19.199Z,0
2018-01-06T05:21:59.777Z,0
2018-01-06T05:22:40.376Z,0
2018-01-06T05:23:20.921Z,0
2018-01-06T05:24:01.491Z,4
2018-01-06T05:24:42.055Z,4
2018-01-06T05:25:22.630Z,4
2018-01-06T05:26:03.186Z,4
2018-01-06T05:26:43.784Z,0
2018-01-06T05:27:24.332Z,4
2018-01-06T05:28:04.913Z,4
2018-01-06T05:28:45.488Z,4
2018-01-06T05:29:26.045Z,4
2018-01-06T05:30:06.613Z,4
2018-01-06T05:30:47.184Z,4
2018-01-06T05:31:27.823Z,4
2018-01-06T05:32:08.405Z,4
2018-01-06T05:32:49.009Z,4
2018-01-06T05:33:29.595Z,4
2018-01-06T05:34:10.181Z,4
2018-01-06T05:34:50.752Z,4
2018-01-06T05:35:31.372Z,4
2018-01-06T05:36:12.016Z,0
2018-01-06T05:36:52.570Z,4
2018-01-06T05:37:33.144Z,4
2018-01-06T05:38:13.712Z,0
2018-01-06T05:38:54.283Z,0
2018-01-06T05:39:34.866Z,0
2018-01-06T05:40:15.517Z,0
2018-01-06T05:40:56.083Z,4
2018-01-06T05:41:36.638Z,0
2018-01-06T05:42:17.245Z,4
2018-01-06T05:42:57.802Z,4
2018-01-06T05:43:38.400Z,4
2018-01-06T05:44:19.002Z,4
2018-01-06T05:44:59.605Z,4
2018-01-06T05:45:40.199Z,4
2018-01-06T05:46:20.785Z,4
2018-01-06T05:47:01.372Z,4
2018-01-06T05:47:41.992Z,4
2018-01-06T05:48:22.567Z,4
2018-01-06T05:49:03.134Z,4
2018-01-06T05:49:43.712Z,4
2018-01-06T05:50:24.317Z,4
2018-01-06T05:51:04.906Z,4
2018-01-06T05:51:45.485Z,4
2018-01-06T05:52:26.049Z,0
2018-01-06T05:53:06.624Z,4
2018-01-06T05:53:47.237Z,4
2018-01-06T05:54:27.834Z,4
2018-01-06T05:55:08.418Z,4
2018-01-06T05:55:48.980Z,4
2018-01-06T05:56:29.594Z,4
2018-01-06T05:57:10.161Z,4
2018-01-06T05:57:50.729Z,4
2018-01-06T05:58:31.297Z,4
2018-01-06T05:59:11.953Z,4
2018-01-06T05:59:52.548Z,4
2018-01-06T06:00:33.125Z,4
2018-01-06T06:01:13.701Z,4
2018-01-06T06:01:54.281Z,4
2018-01-06T06:02:34.854Z,4
2018-01-06T06:03:15.436Z,4
2018-01-06T06:03:56.036Z,4
2018-01-06T06:04:36.599Z,4
2018-01-06T06:05:17.173Z,4
2018-01-06T06:05:57.777Z,4
2018-01-06T06:06:38.429Z,4
2018-01-06T06:07:19.006Z,4
2018-01-06T06:07:59.588Z,4
2018-01-06T06:08:40.174Z,4
2018-01-06T06:09:20.764Z,4
2018-01-06T06:10:01.341Z,4
2018-01-06T06:10:41.914Z,4
2018-01-06T06:11:22.490Z,4
2018-01-06T06:12:03.132Z,4
2018-01-06T06:12:43.695Z,4
2018-01-06T06:13:24.269Z,4
2018-01-06T06:14:04.842Z,4
2018-01-06T06:14:45.406Z,4
2018-01-06T06:15:26.011Z,4
2018-01-06T06:16:06.572Z,4
2018-01-06T06:16:47.187Z,4
2018-01-06T06:17:27.751Z,4
2018-01-06T06:18:08.312Z,4
2018-01-06T06:18:48.903Z,4
2018-01-06T06:19:29.471Z,4
2018-01-06T06:20:10.050Z,4
2018-01-06T06:20:50.620Z,4
2018-01-06T06:21:31.209Z,4
2018-01-06T06:22:11.781Z,4
2018-01-06T06:22:52.357Z,4
2018-01-06T06:23:32.928Z,4
2018-01-06T06:24:13.501Z,4
2018-01-06T06:24:54.067Z,4
2018-01-06T06:25:34.724Z,4
2018-01-06T06:26:15.285Z,4
2018-01-06T06:26:55.889Z,4
2018-01-06T06:27:36.635Z,4
2018-01-06T06:28:17.222Z,4
2018-01-06T06:28:57.802Z,4
2018-01-06T06:29:38.503Z,4
2018-01-06T06:30:19.024Z,4
2018-01-06T06:30:59.578Z,4
2018-01-06T06:31:40.147Z,4
2018-01-06T06:32:20.795Z,4
2018-01-06T06:33:01.373Z,4
2018-01-06T06:33:41.939Z,0
2018-01-06T06:34:22.547Z,0
2018-01-06T06:35:03.122Z,0
2018-01-06T06:35:43.692Z,0
2018-01-06T06:36:24.259Z,0
2018-01-06T06:37:04.841Z,4
2018-01-06T06:37:45.420Z,4
2018-01-06T06:38:25.999Z,4
2018-01-06T06:39:06.583Z,4
2018-01-06T06:39:47.160Z,4
2018-01-06T06:40:27.742Z,4
2018-01-06T06:41:08.332Z,4
2018-01-06T06:41:48.901Z,4
2018-01-06T06:42:29.488Z,4
2018-01-06T06:43:10.144Z,8
2018-01-06T06:43:50.723Z,4
2018-01-06T06:44:31.383Z,8
2018-01-06T06:45:11.952Z,4
2018-01-06T06:45:52.555Z,8
2018-01-06T06:46:33.153Z,8
2018-01-06T06:47:13.723Z,8
2018-01-06T06:47:54.306Z,8
2018-01-06T06:48:34.883Z,12
2018-01-06T06:49:15.517Z,12
2018-01-06T06:49:56.093Z,12
2018-01-06T06:50:36.670Z,16
2018-01-06T06:51:17.221Z,16
2018-01-06T06:51:57.788Z,16
2018-01-06T06:52:38.394Z,16
2018-01-06T06:53:18.998Z,20
2018-01-06T06:53:59.582Z,24
2018-01-06T06:54:40.191Z,20
2018-01-06T06:55:20.783Z,24
2018-01-06T06:56:01.356Z,28
2018-01-06T06:56:41.949Z,28
2018-01-06T06:57:22.525Z,28
2018-01-06T06:58:03.076Z,32
2018-01-06T06:58:43.690Z,40
2018-01-06T06:59:24.260Z,40
2018-01-06T07:00:04.833Z,44
2018-01-06T07:00:45.406Z,44
2018-01-06T07:01:25.998Z,48
2018-01-06T07:02:06.590Z,52
2018-01-06T07:02:47.159Z,60
2018-01-06T07:03:27.744Z,64
2018-01-06T07:04:08.316Z,68
2018-01-06T07:04:48.884Z,72
2018-01-06T07:05:29.449Z,72
2018-01-06T07:06:10.018Z,76
2018-01-06T07:06:50.602Z,84
2018-01-06T07:07:31.163Z,88
2018-01-06T07:08:11.732Z,96
2018-01-06T07:08:52.375Z,100
2018-01-06T07:09:32.967Z,104
2018-01-06T07:10:13.556Z,112
2018-01-06T07:10:54.124Z,116
2018-01-06T07:11:34.736Z,124
2018-01-06T07:12:15.267Z,128
2018-01-06T07:12:55.868Z,136
2018-01-06T07:13:36.439Z,144
2018-01-06T07:14:17.042Z,152
2018-01-06T07:14:57.634Z,156
2018-01-06T07:15:38.200Z,168
2018-01-06T07:16:18.775Z,172
2018-01-06T07:16:59.356Z,180
2018-01-06T07:17:39.919Z,192
2018-01-06T07:18:20.480Z,208
2018-01-06T07:19:01.045Z,220
2018-01-06T07:19:41.608Z,236
2018-01-06T07:20:22.178Z,252
2018-01-06T07:21:02.775Z,264
2018-01-06T07:23:15.882Z,304
2018-01-06T07:23:56.458Z,316
2018-01-06T07:24:37.035Z,324
2018-01-06T07:25:17.721Z,336
2018-01-06T07:27:15.444Z,388
2018-01-06T07:27:56.004Z,408
2018-01-06T07:28:36.602Z,432
2018-01-06T07:29:17.263Z,452
2018-01-06T07:29:57.827Z,468
2018-01-06T07:30:38.418Z,488
2018-01-06T07:31:19.008Z,504
2018-01-06T07:31:59.571Z,520
2018-01-06T07:32:40.155Z,536
2018-01-06T07:33:20.734Z,556
2018-01-06T07:34:01.304Z,572
2018-01-06T07:34:41.897Z,588
2018-01-06T07:35:22.476Z,604
2018-01-06T07:36:03.063Z,620
2018-01-06T07:36:43.634Z,648
2018-01-06T07:37:24.247Z,668
2018-01-06T07:38:04.904Z,688
2018-01-06T07:38:45.459Z,712
2018-01-06T07:39:26.025Z,736
2018-01-06T07:40:06.755Z,764
2018-01-06T07:40:47.309Z,800
2018-01-06T07:41:27.890Z,832
2018-01-06T07:42:08.473Z,848
2018-01-06T07:42:49.036Z,868
2018-01-06T07:43:30.236Z,892
2018-01-06T07:44:11.220Z,920
2018-01-06T07:44:52.008Z,948
2018-01-06T07:45:33.023Z,980
2018-01-06T07:46:13.701Z,1012
2018-01-06T07:46:54.466Z,1028
2018-01-06T07:47:35.476Z,1044
2018-01-06T07:48:16.101Z,1060
2018-01-06T07:48:56.860Z,1080
2018-01-06T07:49:37.681Z,1112
2018-01-06T07:50:18.468Z,1140
2018-01-06T07:50:59.612Z,1172
2018-01-06T07:51:40.535Z,1180
2018-01-06T07:52:21.861Z,1180
2018-01-06T07:53:02.875Z,1168
2018-01-06T07:53:43.525Z,1156
2018-01-06T07:54:24.685Z,1152
2018-01-06T07:55:05.655Z,1176
2018-01-06T07:55:46.228Z,1208
2018-01-06T07:56:27.011Z,1232
2018-01-06T07:57:07.804Z,1252
2018-01-06T07:57:48.399Z,1272
2018-01-06T07:58:29.679Z,1280
2018-01-06T07:59:10.341Z,1280
2018-01-06T07:59:51.111Z,1292
2018-01-06T08:00:32.035Z,1320
2018-01-06T08:01:13.530Z,1344
2018-01-06T08:01:54.378Z,1368
2018-01-06T08:02:35.417Z,1408
2018-01-06T08:03:16.560Z,1440
2018-01-06T08:03:57.529Z,1480
2018-01-06T08:04:38.100Z,1508
2018-01-06T08:05:18.814Z,1528
2018-01-06T08:05:59.579Z,1544
2018-01-06T08:06:40.428Z,1576
2018-01-06T08:07:21.194Z,1624
2018-01-06T08:08:02.695Z,1672
2018-01-06T08:08:43.320Z,1720
2018-01-06T08:09:24.139Z,1748
2018-01-06T08:10:04.862Z,1756
2018-01-06T08:10:45.662Z,1752
2018-01-06T08:11:26.804Z,1740
2018-01-06T08:12:07.584Z,1728
2018-01-06T08:12:48.171Z,1724
2018-01-06T08:13:29.112Z,1724
2018-01-06T08:14:09.913Z,1740
2018-01-06T08:14:50.477Z,1760
2018-01-06T08:15:31.027Z,1784
2018-01-06T08:16:11.726Z,1800
2018-01-06T08:16:52.826Z,1808
2018-01-06T08:17:33.677Z,1812
2018-01-06T08:18:14.366Z,1832
2018-01-06T08:18:54.943Z,1848
2018-01-06T08:19:35.504Z,1844
2018-01-06T08:20:16.121Z,1828
2018-01-06T08:20:56.698Z,1816
2018-01-06T08:21:37.258Z,1812
2018-01-06T08:22:17.843Z,1832
2018-01-06T08:22:58.446Z,1856
2018-01-06T08:23:39.167Z,1860
2018-01-06T08:24:19.782Z,1856
2018-01-06T08:25:00.474Z,1868
2018-01-06T08:25:41.149Z,1888
2018-01-06T08:26:21.694Z,1936
2018-01-06T08:27:02.301Z,1976
2018-01-06T08:27:42.875Z,1976
2018-01-06T08:28:23.454Z,1984
2018-01-06T08:29:04.092Z,1988
2018-01-06T08:29:44.659Z,1996
2018-01-06T08:30:25.252Z,2000
2018-01-06T08:31:05.898Z,2028
2018-01-06T08:31:46.472Z,2076
2018-01-06T08:32:27.028Z,2112
2018-01-06T08:33:07.641Z,2160
2018-01-06T08:33:48.205Z,2244
2018-01-06T08:34:28.819Z,2284
2018-01-06T08:35:09.402Z,2368
2018-01-06T08:35:49.997Z,2408
2018-01-06T08:36:30.562Z,2452
2018-01-06T08:37:11.154Z,2440
2018-01-06T08:37:51.725Z,2432
2018-01-06T08:38:32.294Z,2408
2018-01-06T08:39:12.919Z,2380
2018-01-06T08:39:53.463Z,2360
2018-01-06T08:40:34.025Z,2296
2018-01-06T08:41:14.629Z,2280
2018-01-06T08:41:55.204Z,2300
2018-01-06T08:42:35.790Z,2304
2018-01-06T08:43:16.369Z,2332
2018-01-06T08:43:56.930Z,2368
2018-01-06T08:44:37.550Z,2416
2018-01-06T08:45:18.116Z,2484
2018-01-06T08:45:58.697Z,2488
2018-01-06T08:46:39.263Z,2552
2018-01-06T08:47:19.836Z,2612
2018-01-06T08:48:00.393Z,2636
2018-01-06T08:48:41.036Z,2700
2018-01-06T08:49:21.644Z,2744
2018-01-06T08:50:02.257Z,2828
2018-01-06T08:50:42.864Z,2956
2018-01-06T08:51:23.432Z,3044
2018-01-06T08:52:04.007Z,3264
2018-01-06T08:52:45.062Z,3340
2018-01-06T08:53:28.692Z,3700
2018-01-06T08:54:10.965Z,4248
2018-01-06T08:54:52.351Z,4480
2018-01-06T08:55:32.939Z,4300
2018-01-06T08:56:14.997Z,3892
2018-01-06T08:56:55.705Z,3680
2018-01-06T08:57:36.301Z,3692
2018-01-06T08:58:16.994Z,4232
2018-01-06T08:58:57.565Z,4756
2018-01-06T08:59:38.319Z,4904
2018-01-06T09:00:19.256Z,4384
2018-01-06T09:00:59.849Z,3996
2018-01-06T09:01:40.470Z,4136
2018-01-06T09:02:21.060Z,3908
2018-01-06T09:03:01.648Z,4712
2018-01-06T09:03:42.223Z,3992
2018-01-06T09:04:22.792Z,3840
2018-01-06T09:05:03.735Z,3332
2018-01-06T09:05:44.311Z,3212
2018-01-06T09:06:24.885Z,3116
2018-01-06T09:07:05.455Z,3100
2018-01-06T09:07:46.034Z,3144
2018-01-06T09:08:26.577Z,3220
2018-01-06T09:09:07.162Z,3420
2018-01-06T09:09:47.756Z,3648
2018-01-06T09:10:28.326Z,3648
2018-01-06T09:11:08.898Z,3884
2018-01-06T09:11:49.540Z,4168
2018-01-06T09:12:30.135Z,4920
2018-01-06T09:13:10.755Z,4388
2018-01-06T09:13:51.367Z,5408
2018-01-06T09:14:31.943Z,4448
2018-01-06T09:15:12.799Z,4204
2018-01-06T09:15:53.559Z,3684
2018-01-06T09:16:34.234Z,3436
2018-01-06T09:17:14.900Z,3328
2018-01-06T09:17:55.408Z,3272
2018-01-06T09:18:36.005Z,3316
2018-01-06T09:19:16.568Z,3452
2018-01-06T09:19:57.137Z,3680
2018-01-06T09:20:37.869Z,3792
2018-01-06T09:21:18.469Z,3868
2018-01-06T09:21:59.066Z,4376
2018-01-06T09:22:39.647Z,5172
2018-01-06T09:23:20.228Z,5932
2018-01-06T09:24:00.815Z,6896
2018-01-06T09:24:41.490Z,6964
2018-01-06T09:25:22.086Z,8656
2018-01-06T09:26:02.767Z,9120
2018-01-06T09:26:43.327Z,7380
2018-01-06T09:27:23.932Z,6432
2018-01-06T09:28:04.520Z,5464
2018-01-06T09:28:45.106Z,4668
2018-01-06T09:29:25.750Z,4280
2018-01-06T09:30:06.367Z,3968
2018-01-06T09:30:46.962Z,4204
2018-01-06T09:31:27.556Z,4508
2018-01-06T09:32:08.170Z,4644
2018-01-06T09:32:48.788Z,4812
2018-01-06T09:33:29.381Z,4692
2018-01-06T09:34:09.948Z,4788
2018-01-06T09:34:50.543Z,3952
2018-01-06T09:35:31.165Z,3880
2018-01-06T09:36:11.755Z,3980
2018-01-06T09:36:52.375Z,5016
2018-01-06T09:37:32.946Z,5504
2018-01-06T09:38:13.538Z,4988
2018-01-06T09:38:54.138Z,5252
2018-01-06T09:39:34.742Z,4936
2018-01-06T09:40:15.325Z,5068
2018-01-06T09:40:55.924Z,6064
2018-01-06T09:41:36.516Z,6300
2018-01-06T09:42:17.135Z,5760
2018-01-06T09:42:57.713Z,5420
2018-01-06T09:43:38.340Z,6064
2018-01-06T09:44:18.898Z,5372
2018-01-06T09:44:59.477Z,5472
2018-01-06T09:45:40.066Z,5700
2018-01-06T09:46:20.630Z,5232